Flight Track Log - Related Links

Times and Time Zones

All times are in EDT time to prevent confusion due to time zone crossing. See the ACA288 flight status page for this flight to view local times or setup timezone preferences in your user account.

Time Position Orientation Groundspeed Altitude Reporting Facility
EDT Latitude Longitude Course Direction KTS MPH feet Rate Location/Type
Sat 10:12:00 AM 60.2110 -134.4619 140° Southeast  Level FlightAware Approximate
Sat 10:13:00 AM 60.1166 -134.3044 140° Southeast  Level FlightAware Approximate
Sat 10:14:00 AM 60.0218 -134.1479 141° Southeast  Level FlightAware Approximate
Sat 10:15:00 AM 59.9395 -134.0096 140° Southeast  Level FlightAware Approximate
Sat 10:16:00 AM 59.8570 -133.8721 140° Southeast  Level FlightAware Approximate
Sat 10:17:00 AM 59.7744 -133.7352 140° Southeast  Level FlightAware Approximate
Sat 10:18:00 AM 59.6917 -133.5990 140° Southeast  Level FlightAware Approximate
Sat 10:19:00 AM 59.6088 -133.4634 140° Southeast  Level FlightAware Approximate
Sat 10:20:00 AM 59.5257 -133.3286 140° Southeast  Level FlightAware Approximate
Sat 10:21:00 AM 59.4426 -133.1944 141° Southeast  Level FlightAware Approximate
Sat 10:22:00 AM 59.3592 -133.0608 141° Southeast  Level FlightAware Approximate
Sat 10:23:00 AM 59.2758 -132.9279 141° Southeast  Level FlightAware Approximate
Sat 10:24:00 AM 59.1922 -132.7957 141° Southeast  Level FlightAware Approximate
Sat 10:25:00 AM 59.1085 -132.6641 141° Southeast  Level FlightAware Approximate
Sat 10:26:00 AM 59.0247 -132.5331 141° Southeast  Level FlightAware Approximate
Sat 10:27:00 AM 58.9407 -132.4028 141° Southeast  Level FlightAware Approximate
Sat 10:28:00 AM 58.8566 -132.2731 141° Southeast  Level FlightAware Approximate
Sat 10:29:00 AM 58.7723 -132.1441 142° Southeast  Level FlightAware Approximate
Sat 10:30:00 AM 58.6880 -132.0156 142° Southeast  Level FlightAware Approximate
Sat 10:31:00 AM 58.6015 -131.8908 144° Southeast  Level FlightAware Approximate
Sat 10:32:00 AM 58.5149 -131.7686 144° Southeast  Level FlightAware Approximate
Sat 10:33:00 AM 58.4282 -131.6470 144° Southeast  Level FlightAware Approximate
Sat 10:34:00 AM 58.3413 -131.5260 144° Southeast  Level FlightAware Approximate
Sat 10:35:00 AM 58.2544 -131.4056 144° Southeast  Level FlightAware Approximate
Sat 10:36:00 AM 58.1674 -131.2858 144° Southeast  Level FlightAware Approximate
Sat 10:37:00 AM 58.0802 -131.1666 144° Southeast  Level FlightAware Approximate
Sat 10:38:00 AM 57.9929 -131.0479 144° Southeast  Level FlightAware Approximate
Sat 10:39:00 AM 57.9055 -130.9299 144° Southeast  Level FlightAware Approximate
Sat 10:40:00 AM 57.8181 -130.8124 144° Southeast  Level FlightAware Approximate
Sat 10:41:00 AM 57.7304 -130.6955 145° Southeast  Level FlightAware Approximate
Sat 10:42:00 AM 57.6427 -130.5791 145° Southeast  Level FlightAware Approximate
Sat 10:43:00 AM 57.5558 -130.4610 144° Southeast  Level FlightAware Approximate
Sat 10:44:00 AM 57.4689 -130.3432 144° Southeast  Level FlightAware Approximate
Sat 10:45:00 AM 57.3818 -130.2259 144° Southeast  Level FlightAware Approximate
Sat 10:46:00 AM 57.2947 -130.1092 144° Southeast  Level FlightAware Approximate
Sat 10:47:00 AM 57.2074 -129.9930 144° Southeast  Level FlightAware Approximate
Sat 10:48:00 AM 57.1201 -129.8774 144° Southeast  Level FlightAware Approximate
Sat 10:49:00 AM 57.0326 -129.7624 144° Southeast  Level FlightAware Approximate
Sat 10:49:30 AM 56.9500 -129.7000 145° Southeast 460 529 39,000  Level Vancouver Center
Sat 10:50:00 AM 56.9450 -129.6478 144° Southeast  Level FlightAware Approximate
Sat 10:50:30 AM 56.8500 -129.5833 147° Southeast 450 518 39,000  Level Vancouver Center
Sat 10:51:00 AM 56.8573 -129.5338 145° Southeast  Level FlightAware Approximate
Sat 10:51:30 AM 56.7333 -129.4500 148° Southeast 410 472 39,000  Level Vancouver Center
Sat 10:52:00 AM 56.7696 -129.4204 145° Southeast  Level FlightAware Approximate
Sat 10:52:30 AM 56.6500 -129.3167 139° Southeast 430 495 39,000  Level Vancouver Center
Sat 10:53:00 AM 56.6818 -129.3072 145° Southeast  Level FlightAware Approximate
Sat 10:53:30 AM 56.5500 -129.1833 144° Southeast 470 541 39,000  Level Vancouver Center
Sat 10:54:00 AM 56.5939 -129.1945 145° Southeast  Level FlightAware Approximate
Sat 10:54:30 AM 56.4333 -129.0500 148° Southeast 450 518 39,000  Level Vancouver Center
Sat 10:55:30 AM 56.3500 -128.9333 142° Southeast 450 518 39,000  Level Vancouver Center
Sat 10:56:30 AM 56.2333 -128.8000 148° Southeast 440 506 39,000  Level Vancouver Center
Sat 10:57:30 AM 56.1333 -128.6667 143° Southeast 440 506 39,000  Level Vancouver Center
Sat 10:58:30 AM 56.0333 -128.5333 143° Southeast 450 518 39,000  Level Vancouver Center
Sat 10:59:30 AM 55.9500 -128.4167 142° Southeast 440 506 39,000  Level Vancouver Center
Sat 11:00:30 AM 55.8333 -128.2833 147° Southeast 440 506 39,000  Level Vancouver Center
Sat 11:01:30 AM 55.7167 -128.1500 147° Southeast 450 518 39,000  Level Vancouver Center
Sat 11:02:30 AM 55.6333 -128.0500 146° Southeast 450 518 39,000  Level Vancouver Center
Sat 11:03:30 AM 55.5333 -127.9000 140° Southeast 470 541 39,000  Level Vancouver Center
Sat 11:04:30 AM 55.4167 -127.8000 154° Southeast 450 518 39,000  Level Vancouver Center
Sat 11:05:30 AM 55.3000 -127.6667 147° Southeast 430 495 39,000  Level Vancouver Center
Sat 11:06:30 AM 55.2000 -127.5333 143° Southeast 430 495 39,000  Level Vancouver Center
Sat 11:07:30 AM 55.1167 -127.4167 141° Southeast 480 552 39,000  Level Vancouver Center
Sat 11:08:30 AM 55.0000 -127.2833 147° Southeast 450 518 39,000  Level Vancouver Center
Sat 11:09:30 AM 54.9000 -127.1833 150° Southeast 450 518 39,000  Level Vancouver Center
Sat 11:10:30 AM 54.7833 -127.0667 150° Southeast 450 518 39,000  Level Vancouver Center
Sat 11:11:30 AM 54.6833 -126.9500 146° Southeast 450 518 39,000  Level Vancouver Center
Sat 11:12:30 AM 54.6000 -126.8167 137° Southeast 440 506 39,000  Level Vancouver Center
Sat 11:13:30 AM 54.4833 -126.7000 150° Southeast 440 506 39,000  Level Vancouver Center
Sat 11:14:30 AM 54.3667 -126.6000 153° Southeast 440 506 39,000  Level Vancouver Center
Sat 11:15:30 AM 54.2500 -126.5333 162° South 440 506 39,000  Level Vancouver Center
Sat 11:16:30 AM 54.1500 -126.4667 159° South 440 506 39,000  Level Vancouver Center
Sat 11:17:30 AM 54.0167 -126.3833 160° South 430 495 39,000  Level Vancouver Center
Sat 11:18:30 AM 53.9167 -126.3167 159° South 440 506 39,000  Level Vancouver Center
Sat 11:19:30 AM 53.8000 -126.2500 161° South 430 495 39,000  Level Vancouver Center
Sat 11:20:30 AM 53.6833 -126.1667 157° South 430 495 39,000  Level Vancouver Center
Sat 11:21:30 AM 53.5833 -126.1000 158° South 430 495 39,000  Level Vancouver Center
Sat 11:22:30 AM 53.4500 -126.0333 163° South 430 495 39,000  Level Vancouver Center
Sat 11:23:30 AM 53.3667 -125.9500 149° Southeast 430 495 39,000  Level Vancouver Center
Sat 11:24:30 AM 53.2500 -125.8833 161° South 430 495 39,000  Level Vancouver Center
Sat 11:25:30 AM 53.1333 -125.8333 166° South 430 495 39,000  Level Vancouver Center
Sat 11:26:30 AM 53.0167 -125.7333 153° Southeast 430 495 39,000  Level Vancouver Center
Sat 11:27:30 AM 52.9000 -125.6833 166° South 430 495 39,000  Level Vancouver Center
Sat 11:28:30 AM 52.8000 -125.6167 158° South 430 495 39,000  Level Vancouver Center
Sat 11:29:30 AM 52.6833 -125.5333 157° South 430 495 39,000  Level Vancouver Center
Sat 11:30:30 AM 52.5667 -125.4667 161° South 430 495 39,000  Level Vancouver Center
Sat 11:31:30 AM 52.4500 -125.3833 156° South 430 495 39,000  Level Vancouver Center
Sat 11:32:30 AM 52.3333 -125.3333 165° South 440 506 39,000  Level Vancouver Center
Sat 11:33:30 AM 52.2167 -125.2667 161° South 440 506 39,000  Level Vancouver Center
Sat 11:34:30 AM 52.1000 -125.1833 156° South 430 495 39,000  Level Vancouver Center
Sat 11:35:30 AM 52.0000 -125.1333 163° South 430 495 39,000  Level Vancouver Center
Sat 11:36:30 AM 51.8833 -125.0667 161° South 430 495 39,000  Level Vancouver Center
Sat 11:37:30 AM 51.7667 -125.0167 165° South 430 495 39,000  Level Vancouver Center
Sat 11:38:30 AM 51.6500 -124.9333 156° South 430 495 39,000  Level Vancouver Center
Sat 11:39:30 AM 51.5333 -124.8667 160° South 430 495 39,000  Level Vancouver Center
Sat 11:40:30 AM 51.4167 -124.8167 165° South 430 495 39,000  Level Vancouver Center
Sat 11:41:30 AM 51.3167 -124.7333 152° Southeast 420 483 39,000  Level Vancouver Center
Sat 11:42:30 AM 51.2167 -124.6833 163° South 420 483 39,000  Level Vancouver Center
Sat 11:43:30 AM 51.1000 -124.6167 160° South 430 495 39,000  Level Vancouver Center
Sat 11:44:30 AM 50.9833 -124.5333 156° South 430 495 39,000  Level Vancouver Center
Sat 11:45:30 AM 50.8667 -124.4833 165° South 430 495 39,000 -400 Level Vancouver Center
Sat 11:46:30 AM 50.7667 -124.4333 162° South 430 495 38,200 -1,600 Descending Vancouver Center
Sat 11:47:30 AM 50.6500 -124.3500 156° South 430 495 35,800 -2,150 Descending Vancouver Center
Sat 11:48:30 AM 50.5333 -124.3000 165° South 410 472 33,900 -2,600 Descending Vancouver Center
Sat 11:49:30 AM 50.4333 -124.2500 162° South 390 449 30,600 -2,750 Descending Vancouver Center
Sat 11:50:30 AM 50.3500 -124.1833 153° Southeast 390 449 28,400 -2,250 Descending Vancouver Center
Sat 11:51:30 AM 50.2500 -124.1167 157° South 370 426 26,100 -2,200 Descending Vancouver Center
Sat 11:52:30 AM 50.1667 -124.0333 147° Southeast 360 414 24,000 -2,100 Descending Vancouver Center
Sat 11:53:30 AM 50.0833 -123.9500 147° Southeast 340 391 21,900 -2,000 Descending Vancouver Center
Sat 11:54:30 AM 50.0000 -123.9000 159° South 330 380 20,000 -1,900 Descending Vancouver Center
Sat 11:55:30 AM 49.9167 -123.8167 147° Southeast 320 368 18,100 -1,850 Descending Vancouver Center
Sat 11:56:30 AM 49.8500 -123.7667 154° Southeast 310 357 16,300 -1,700 Descending Vancouver Center
Sat 11:57:30 AM 49.7667 -123.7000 153° Southeast 300 345 14,700 -1,250 Descending Vancouver Center
Sat 11:58:30 AM 49.7167 -123.6500 147° Southeast 280 322 13,800 -1,000 Descending Vancouver Center
Sat 11:59:30 AM 49.6500 -123.6000 154° Southeast 270 311 12,700 -1,750 Descending Vancouver Center
Sat 12:00:30 PM 49.5667 -123.5667 165° South 270 311 10,300 -2,200 Descending Vancouver Center
Sat 12:01:30 PM 49.5000 -123.5667 180° South 270 311 8,300 -1,650 Descending Vancouver Center
Sat 12:02:30 PM 49.4167 -123.5500 173° South 260 299 7,000 -1,350 Descending Vancouver Center
Sat 12:03:30 PM 49.3667 -123.5167 157° South 240 276 5,600 -850 Descending Vancouver Center
Sat 12:04:30 PM 49.3000 -123.5167 180° South 230 265 5,300 -900 Descending Vancouver Center
Sat 12:05:30 PM 49.2500 -123.4667 147° Southeast 220 253 3,800 -1,250 Descending Vancouver Center
Sat 12:06:30 PM 49.2167 -123.4167 136° Southeast 210 242 2,800 -1,000 Descending Vancouver Center
Sat 12:07:30 PM 49.2000 -123.3333 107° East 180 207 1,800 -900 Descending Vancouver Center
Sat 12:08:30 PM 49.2000 -123.2667 90° East 160 184 1,000 -800 Descending Vancouver Center
Sat 12:09:30 PM 49.1833 -123.2167 117° Southeast 140 161 200 -800 Descending Vancouver Center

Login

Don't have an account? Register now (free) for customized features, flight alerts, and more!